sensor_id;sensor_type;location;lat;lon;timestamp;P1;durP1;ratioP1;P2;durP2;ratioP2
36211;SDS011;22247;48.586;13.492;2023-06-22T00:00:58;10.75;;;3.47;;
36211;SDS011;22247;48.586;13.492;2023-06-22T00:03:24;8.38;;;3.28;;
36211;SDS011;22247;48.586;13.492;2023-06-22T00:05:50;7.18;;;3.25;;
36211;SDS011;22247;48.586;13.492;2023-06-22T00:08:15;10.40;;;3.30;;
36211;SDS011;22247;48.586;13.492;2023-06-22T00:10:40;18.25;;;6.15;;
36211;SDS011;22247;48.586;13.492;2023-06-22T00:13:06;11.50;;;3.45;;
36211;SDS011;22247;48.586;13.492;2023-06-22T00:15:31;6.90;;;3.40;;
36211;SDS011;22247;48.586;13.492;2023-06-22T00:17:56;8.82;;;3.45;;
36211;SDS011;22247;48.586;13.492;2023-06-22T00:20:21;8.90;;;3.75;;
36211;SDS011;22247;48.586;13.492;2023-06-22T00:22:46;8.65;;;3.15;;
36211;SDS011;22247;48.586;13.492;2023-06-22T00:25:11;6.85;;;2.88;;
36211;SDS011;22247;48.586;13.492;2023-06-22T00:27:36;10.80;;;2.95;;
36211;SDS011;22247;48.586;13.492;2023-06-22T00:30:02;9.32;;;3.17;;
36211;SDS011;22247;48.586;13.492;2023-06-22T00:32:27;11.82;;;3.15;;
36211;SDS011;22247;48.586;13.492;2023-06-22T00:34:54;12.68;;;3.67;;
36211;SDS011;22247;48.586;13.492;2023-06-22T00:37:19;9.30;;;3.40;;
36211;SDS011;22247;48.586;13.492;2023-06-22T00:39:49;7.88;;;2.97;;
36211;SDS011;22247;48.586;13.492;2023-06-22T00:42:14;16.58;;;3.90;;
36211;SDS011;22247;48.586;13.492;2023-06-22T00:44:39;16.52;;;3.97;;
36211;SDS011;22247;48.586;13.492;2023-06-22T00:47:04;7.57;;;3.33;;
36211;SDS011;22247;48.586;13.492;2023-06-22T00:49:30;11.45;;;3.35;;
36211;SDS011;22247;48.586;13.492;2023-06-22T00:51:55;7.43;;;3.22;;
36211;SDS011;22247;48.586;13.492;2023-06-22T00:54:21;11.48;;;3.90;;
36211;SDS011;22247;48.586;13.492;2023-06-22T00:56:50;8.20;;;3.35;;
36211;SDS011;22247;48.586;13.492;2023-06-22T00:59:16;9.75;;;3.70;;
36211;SDS011;22247;48.586;13.492;2023-06-22T01:01:41;7.68;;;3.30;;
36211;SDS011;22247;48.586;13.492;2023-06-22T01:04:09;14.00;;;3.70;;
36211;SDS011;22247;48.586;13.492;2023-06-22T01:06:38;9.07;;;3.20;;
36211;SDS011;22247;48.586;13.492;2023-06-22T01:09:12;10.30;;;3.40;;
36211;SDS011;22247;48.586;13.492;2023-06-22T01:11:43;6.78;;;3.08;;
36211;SDS011;22247;48.586;13.492;2023-06-22T01:14:12;11.52;;;3.83;;
36211;SDS011;22247;48.586;13.492;2023-06-22T01:16:40;7.75;;;3.58;;
36211;SDS011;22247;48.586;13.492;2023-06-22T01:19:26;10.60;;;3.50;;
36211;SDS011;22247;48.586;13.492;2023-06-22T01:21:53;12.95;;;3.63;;
36211;SDS011;22247;48.586;13.492;2023-06-22T01:24:26;9.73;;;3.40;;
36211;SDS011;22247;48.586;13.492;2023-06-22T01:29:25;8.13;;;3.33;;
36211;SDS011;22247;48.586;13.492;2023-06-22T01:31:51;6.93;;;3.05;;
36211;SDS011;22247;48.586;13.492;2023-06-22T01:34:17;8.23;;;3.10;;
36211;SDS011;22247;48.586;13.492;2023-06-22T01:36:42;14.88;;;3.67;;
36211;SDS011;22247;48.586;13.492;2023-06-22T01:39:07;9.98;;;3.17;;
36211;SDS011;22247;48.586;13.492;2023-06-22T01:41:35;9.98;;;3.05;;
36211;SDS011;22247;48.586;13.492;2023-06-22T01:44:00;10.50;;;3.38;;
36211;SDS011;22247;48.586;13.492;2023-06-22T01:46:28;13.00;;;4.05;;
36211;SDS011;22247;48.586;13.492;2023-06-22T01:48:53;9.55;;;3.53;;
36211;SDS011;22247;48.586;13.492;2023-06-22T01:53:43;10.30;;;3.37;;
36211;SDS011;22247;48.586;13.492;2023-06-22T01:56:11;10.25;;;3.35;;
36211;SDS011;22247;48.586;13.492;2023-06-22T02:01:11;7.90;;;3.50;;
36211;SDS011;22247;48.586;13.492;2023-06-22T02:04:13;9.30;;;3.83;;
36211;SDS011;22247;48.586;13.492;2023-06-22T02:06:30;6.95;;;3.55;;
36211;SDS011;22247;48.586;13.492;2023-06-22T02:08:59;7.90;;;3.08;;
36211;SDS011;22247;48.586;13.492;2023-06-22T02:11:26;10.15;;;3.30;;
36211;SDS011;22247;48.586;13.492;2023-06-22T02:13:52;13.20;;;3.72;;
36211;SDS011;22247;48.586;13.492;2023-06-22T02:16:18;8.75;;;3.05;;
36211;SDS011;22247;48.586;13.492;2023-06-22T02:18:47;13.82;;;3.65;;
36211;SDS011;22247;48.586;13.492;2023-06-22T02:21:14;11.18;;;3.47;;
36211;SDS011;22247;48.586;13.492;2023-06-22T02:26:04;7.10;;;3.20;;
36211;SDS011;22247;48.586;13.492;2023-06-22T02:28:30;12.20;;;3.28;;
36211;SDS011;22247;48.586;13.492;2023-06-22T02:33:19;8.57;;;3.03;;
36211;SDS011;22247;48.586;13.492;2023-06-22T02:35:45;14.90;;;4.50;;
36211;SDS011;22247;48.586;13.492;2023-06-22T02:38:12;7.50;;;3.08;;
36211;SDS011;22247;48.586;13.492;2023-06-22T02:40:38;5.80;;;3.10;;
36211;SDS011;22247;48.586;13.492;2023-06-22T02:43:03;9.25;;;3.20;;
36211;SDS011;22247;48.586;13.492;2023-06-22T02:47:56;8.83;;;4.03;;
36211;SDS011;22247;48.586;13.492;2023-06-22T02:50:21;9.93;;;3.85;;
36211;SDS011;22247;48.586;13.492;2023-06-22T02:55:11;8.53;;;3.57;;
36211;SDS011;22247;48.586;13.492;2023-06-22T03:00:02;11.67;;;3.57;;
36211;SDS011;22247;48.586;13.492;2023-06-22T03:02:36;5.28;;;3.08;;
36211;SDS011;22247;48.586;13.492;2023-06-22T03:07:28;13.02;;;3.50;;
36211;SDS011;22247;48.586;13.492;2023-06-22T03:09:54;12.82;;;3.42;;
36211;SDS011;22247;48.586;13.492;2023-06-22T03:12:21;10.70;;;3.60;;
36211;SDS011;22247;48.586;13.492;2023-06-22T03:14:46;7.57;;;3.10;;
36211;SDS011;22247;48.586;13.492;2023-06-22T03:19:36;9.30;;;2.83;;
36211;SDS011;22247;48.586;13.492;2023-06-22T03:24:26;8.20;;;3.30;;
36211;SDS011;22247;48.586;13.492;2023-06-22T03:26:53;10.02;;;4.10;;
36211;SDS011;22247;48.586;13.492;2023-06-22T03:29:18;9.32;;;3.13;;
36211;SDS011;22247;48.586;13.492;2023-06-22T03:34:08;8.80;;;3.30;;
36211;SDS011;22247;48.586;13.492;2023-06-22T03:38:58;5.97;;;3.10;;
36211;SDS011;22247;48.586;13.492;2023-06-22T03:41:26;10.18;;;3.47;;
36211;SDS011;22247;48.586;13.492;2023-06-22T03:43:51;9.35;;;4.18;;
36211;SDS011;22247;48.586;13.492;2023-06-22T03:48:41;6.20;;;3.20;;
36211;SDS011;22247;48.586;13.492;2023-06-22T03:51:06;9.63;;;3.97;;
36211;SDS011;22247;48.586;13.492;2023-06-22T03:53:31;8.43;;;3.35;;
36211;SDS011;22247;48.586;13.492;2023-06-22T03:55:56;10.85;;;3.45;;
36211;SDS011;22247;48.586;13.492;2023-06-22T03:58:21;6.53;;;3.58;;
36211;SDS011;22247;48.586;13.492;2023-06-22T04:00:51;6.72;;;3.30;;
36211;SDS011;22247;48.586;13.492;2023-06-22T04:03:19;6.28;;;2.83;;
36211;SDS011;22247;48.586;13.492;2023-06-22T04:05:45;9.40;;;3.72;;
36211;SDS011;22247;48.586;13.492;2023-06-22T04:08:13;6.72;;;3.70;;
36211;SDS011;22247;48.586;13.492;2023-06-22T04:10:38;6.47;;;3.40;;
36211;SDS011;22247;48.586;13.492;2023-06-22T04:13:06;8.02;;;3.05;;
36211;SDS011;22247;48.586;13.492;2023-06-22T04:15:33;9.15;;;3.42;;
36211;SDS011;22247;48.586;13.492;2023-06-22T04:17:58;14.10;;;3.42;;
36211;SDS011;22247;48.586;13.492;2023-06-22T04:22:56;5.57;;;3.28;;
36211;SDS011;22247;48.586;13.492;2023-06-22T04:27:46;9.17;;;3.20;;
36211;SDS011;22247;48.586;13.492;2023-06-22T04:30:11;9.13;;;3.33;;
36211;SDS011;22247;48.586;13.492;2023-06-22T04:32:39;8.48;;;3.35;;
36211;SDS011;22247;48.586;13.492;2023-06-22T04:35:05;9.07;;;2.80;;
36211;SDS011;22247;48.586;13.492;2023-06-22T04:37:30;7.30;;;3.40;;
36211;SDS011;22247;48.586;13.492;2023-06-22T04:39:55;6.75;;;2.72;;
36211;SDS011;22247;48.586;13.492;2023-06-22T04:42:20;9.68;;;3.50;;
36211;SDS011;22247;48.586;13.492;2023-06-22T04:44:45;7.55;;;3.45;;
36211;SDS011;22247;48.586;13.492;2023-06-22T04:47:13;14.10;;;3.95;;
36211;SDS011;22247;48.586;13.492;2023-06-22T04:49:38;8.50;;;3.78;;
36211;SDS011;22247;48.586;13.492;2023-06-22T04:52:07;8.23;;;3.45;;
36211;SDS011;22247;48.586;13.492;2023-06-22T04:54:33;7.90;;;3.45;;
36211;SDS011;22247;48.586;13.492;2023-06-22T04:57:02;11.60;;;3.65;;
36211;SDS011;22247;48.586;13.492;2023-06-22T04:59:28;10.80;;;3.85;;
36211;SDS011;22247;48.586;13.492;2023-06-22T05:02:02;12.48;;;3.65;;
36211;SDS011;22247;48.586;13.492;2023-06-22T05:04:28;7.28;;;3.45;;
36211;SDS011;22247;48.586;13.492;2023-06-22T05:06:55;11.35;;;4.00;;
36211;SDS011;22247;48.586;13.492;2023-06-22T05:09:20;7.40;;;3.30;;
36211;SDS011;22247;48.586;13.492;2023-06-22T05:11:46;7.82;;;3.30;;
36211;SDS011;22247;48.586;13.492;2023-06-22T05:14:11;10.43;;;3.72;;
36211;SDS011;22247;48.586;13.492;2023-06-22T05:16:38;12.13;;;3.53;;
36211;SDS011;22247;48.586;13.492;2023-06-22T05:19:06;8.43;;;3.95;;
36211;SDS011;22247;48.586;13.492;2023-06-22T05:21:33;7.45;;;3.50;;
36211;SDS011;22247;48.586;13.492;2023-06-22T05:24:01;12.23;;;3.90;;
36211;SDS011;22247;48.586;13.492;2023-06-22T05:26:28;11.88;;;3.58;;
36211;SDS011;22247;48.586;13.492;2023-06-22T05:28:53;11.38;;;3.50;;
36211;SDS011;22247;48.586;13.492;2023-06-22T05:31:18;12.15;;;4.10;;
36211;SDS011;22247;48.586;13.492;2023-06-22T05:33:43;8.13;;;4.07;;
36211;SDS011;22247;48.586;13.492;2023-06-22T05:36:09;8.05;;;4.22;;
36211;SDS011;22247;48.586;13.492;2023-06-22T05:38:34;10.45;;;3.90;;
36211;SDS011;22247;48.586;13.492;2023-06-22T05:40:59;11.30;;;4.15;;
36211;SDS011;22247;48.586;13.492;2023-06-22T05:43:26;8.57;;;3.90;;
36211;SDS011;22247;48.586;13.492;2023-06-22T05:45:51;8.13;;;3.83;;
36211;SDS011;22247;48.586;13.492;2023-06-22T05:48:18;7.47;;;3.97;;
36211;SDS011;22247;48.586;13.492;2023-06-22T05:50:43;11.75;;;4.20;;
36211;SDS011;22247;48.586;13.492;2023-06-22T05:53:08;12.25;;;4.63;;
36211;SDS011;22247;48.586;13.492;2023-06-22T05:55:33;14.25;;;4.30;;
36211;SDS011;22247;48.586;13.492;2023-06-22T05:57:58;5.93;;;3.85;;
36211;SDS011;22247;48.586;13.492;2023-06-22T06:00:24;12.60;;;4.35;;
36211;SDS011;22247;48.586;13.492;2023-06-22T06:02:49;9.80;;;4.07;;
36211;SDS011;22247;48.586;13.492;2023-06-22T06:05:14;12.25;;;4.53;;
36211;SDS011;22247;48.586;13.492;2023-06-22T06:07:40;15.23;;;4.53;;
36211;SDS011;22247;48.586;13.492;2023-06-22T06:10:05;12.27;;;4.22;;
36211;SDS011;22247;48.586;13.492;2023-06-22T06:12:30;10.82;;;4.47;;
36211;SDS011;22247;48.586;13.492;2023-06-22T06:14:55;14.10;;;4.15;;
36211;SDS011;22247;48.586;13.492;2023-06-22T06:17:20;10.15;;;4.47;;
36211;SDS011;22247;48.586;13.492;2023-06-22T06:19:48;11.02;;;5.15;;
36211;SDS011;22247;48.586;13.492;2023-06-22T06:22:15;10.93;;;4.65;;
36211;SDS011;22247;48.586;13.492;2023-06-22T06:24:42;11.05;;;4.75;;
36211;SDS011;22247;48.586;13.492;2023-06-22T06:27:07;5.88;;;4.03;;
36211;SDS011;22247;48.586;13.492;2023-06-22T06:29:33;15.05;;;5.00;;
36211;SDS011;22247;48.586;13.492;2023-06-22T06:31:58;8.07;;;4.28;;
36211;SDS011;22247;48.586;13.492;2023-06-22T06:34:23;7.75;;;4.78;;
36211;SDS011;22247;48.586;13.492;2023-06-22T06:36:48;11.88;;;4.53;;
36211;SDS011;22247;48.586;13.492;2023-06-22T06:39:13;14.23;;;5.07;;
36211;SDS011;22247;48.586;13.492;2023-06-22T06:41:38;9.82;;;4.40;;
36211;SDS011;22247;48.586;13.492;2023-06-22T06:44:03;11.32;;;5.00;;
36211;SDS011;22247;48.586;13.492;2023-06-22T06:46:28;22.67;;;5.45;;
36211;SDS011;22247;48.586;13.492;2023-06-22T06:48:55;9.63;;;4.35;;
36211;SDS011;22247;48.586;13.492;2023-06-22T06:51:20;14.00;;;4.45;;
36211;SDS011;22247;48.586;13.492;2023-06-22T06:53:45;11.07;;;4.82;;
36211;SDS011;22247;48.586;13.492;2023-06-22T06:56:10;9.65;;;4.60;;
36211;SDS011;22247;48.586;13.492;2023-06-22T06:58:35;11.73;;;4.68;;
36211;SDS011;22247;48.586;13.492;2023-06-22T07:01:00;12.20;;;4.55;;
36211;SDS011;22247;48.586;13.492;2023-06-22T07:03:27;8.88;;;4.55;;
36211;SDS011;22247;48.586;13.492;2023-06-22T07:05:52;8.07;;;4.03;;
36211;SDS011;22247;48.586;13.492;2023-06-22T07:08:17;10.10;;;4.78;;
36211;SDS011;22247;48.586;13.492;2023-06-22T07:10:42;15.35;;;4.25;;
36211;SDS011;22247;48.586;13.492;2023-06-22T07:13:07;11.43;;;4.97;;
36211;SDS011;22247;48.586;13.492;2023-06-22T07:15:32;8.43;;;4.43;;
36211;SDS011;22247;48.586;13.492;2023-06-22T07:17:57;11.57;;;5.40;;
36211;SDS011;22247;48.586;13.492;2023-06-22T07:20:22;8.40;;;4.68;;
36211;SDS011;22247;48.586;13.492;2023-06-22T07:22:47;8.85;;;4.43;;
36211;SDS011;22247;48.586;13.492;2023-06-22T07:25:12;7.97;;;4.18;;
36211;SDS011;22247;48.586;13.492;2023-06-22T07:27:46;7.72;;;4.28;;
36211;SDS011;22247;48.586;13.492;2023-06-22T07:30:23;10.05;;;4.32;;
36211;SDS011;22247;48.586;13.492;2023-06-22T07:32:48;10.02;;;4.28;;
36211;SDS011;22247;48.586;13.492;2023-06-22T07:35:13;10.95;;;4.38;;
36211;SDS011;22247;48.586;13.492;2023-06-22T07:37:43;7.15;;;3.90;;
36211;SDS011;22247;48.586;13.492;2023-06-22T07:40:08;6.60;;;3.85;;
36211;SDS011;22247;48.586;13.492;2023-06-22T07:42:35;10.73;;;3.90;;
36211;SDS011;22247;48.586;13.492;2023-06-22T07:45:03;12.73;;;4.28;;
36211;SDS011;22247;48.586;13.492;2023-06-22T07:47:32;9.07;;;4.40;;
36211;SDS011;22247;48.586;13.492;2023-06-22T07:50:01;8.40;;;4.25;;
36211;SDS011;22247;48.586;13.492;2023-06-22T07:52:30;9.90;;;4.55;;
36211;SDS011;22247;48.586;13.492;2023-06-22T07:54:55;9.40;;;4.03;;
36211;SDS011;22247;48.586;13.492;2023-06-22T07:57:20;9.98;;;4.10;;
36211;SDS011;22247;48.586;13.492;2023-06-22T07:59:45;8.95;;;3.65;;
36211;SDS011;22247;48.586;13.492;2023-06-22T08:02:10;8.32;;;3.90;;
36211;SDS011;22247;48.586;13.492;2023-06-22T08:04:35;8.10;;;3.83;;
36211;SDS011;22247;48.586;13.492;2023-06-22T08:07:00;8.68;;;3.75;;
36211;SDS011;22247;48.586;13.492;2023-06-22T08:09:29;11.52;;;4.30;;
36211;SDS011;22247;48.586;13.492;2023-06-22T08:11:58;11.73;;;4.00;;
36211;SDS011;22247;48.586;13.492;2023-06-22T08:14:26;8.38;;;4.50;;
36211;SDS011;22247;48.586;13.492;2023-06-22T08:16:53;9.38;;;4.13;;
36211;SDS011;22247;48.586;13.492;2023-06-22T08:19:18;9.90;;;3.78;;
36211;SDS011;22247;48.586;13.492;2023-06-22T08:21:44;9.27;;;4.20;;
36211;SDS011;22247;48.586;13.492;2023-06-22T08:24:09;12.60;;;4.40;;
36211;SDS011;22247;48.586;13.492;2023-06-22T08:26:34;6.35;;;3.85;;
36211;SDS011;22247;48.586;13.492;2023-06-22T08:29:03;8.48;;;3.92;;
36211;SDS011;22247;48.586;13.492;2023-06-22T08:31:29;13.43;;;4.18;;
36211;SDS011;22247;48.586;13.492;2023-06-22T08:33:54;11.30;;;4.30;;
36211;SDS011;22247;48.586;13.492;2023-06-22T08:36:19;14.25;;;3.85;;
36211;SDS011;22247;48.586;13.492;2023-06-22T08:38:44;18.13;;;4.25;;
36211;SDS011;22247;48.586;13.492;2023-06-22T08:41:15;9.20;;;4.28;;
36211;SDS011;22247;48.586;13.492;2023-06-22T08:43:40;17.15;;;4.30;;
36211;SDS011;22247;48.586;13.492;2023-06-22T08:46:06;11.75;;;4.45;;
36211;SDS011;22247;48.586;13.492;2023-06-22T08:48:31;12.20;;;4.25;;
36211;SDS011;22247;48.586;13.492;2023-06-22T08:50:56;11.23;;;4.40;;
36211;SDS011;22247;48.586;13.492;2023-06-22T08:53:21;11.25;;;4.10;;
36211;SDS011;22247;48.586;13.492;2023-06-22T08:55:46;13.13;;;4.53;;
36211;SDS011;22247;48.586;13.492;2023-06-22T08:58:11;11.68;;;4.13;;
36211;SDS011;22247;48.586;13.492;2023-06-22T09:00:36;14.68;;;4.82;;
36211;SDS011;22247;48.586;13.492;2023-06-22T09:03:01;11.38;;;4.28;;
36211;SDS011;22247;48.586;13.492;2023-06-22T09:05:26;9.27;;;4.28;;
36211;SDS011;22247;48.586;13.492;2023-06-22T09:07:51;11.93;;;4.57;;
36211;SDS011;22247;48.586;13.492;2023-06-22T09:10:21;10.15;;;4.07;;
36211;SDS011;22247;48.586;13.492;2023-06-22T09:12:46;11.77;;;4.25;;
36211;SDS011;22247;48.586;13.492;2023-06-22T09:15:11;10.35;;;4.50;;
36211;SDS011;22247;48.586;13.492;2023-06-22T09:17:36;11.73;;;4.38;;
36211;SDS011;22247;48.586;13.492;2023-06-22T09:20:01;14.25;;;4.88;;
36211;SDS011;22247;48.586;13.492;2023-06-22T09:22:29;13.52;;;4.53;;
36211;SDS011;22247;48.586;13.492;2023-06-22T09:24:55;19.20;;;4.50;;
36211;SDS011;22247;48.586;13.492;2023-06-22T09:27:20;16.60;;;4.32;;
36211;SDS011;22247;48.586;13.492;2023-06-22T09:29:45;14.40;;;4.88;;
36211;SDS011;22247;48.586;13.492;2023-06-22T09:32:10;14.68;;;4.70;;
36211;SDS011;22247;48.586;13.492;2023-06-22T09:34:35;12.27;;;4.93;;
36211;SDS011;22247;48.586;13.492;2023-06-22T09:37:05;7.40;;;3.78;;
36211;SDS011;22247;48.586;13.492;2023-06-22T09:39:30;9.20;;;4.53;;
36211;SDS011;22247;48.586;13.492;2023-06-22T09:41:55;13.00;;;4.65;;
36211;SDS011;22247;48.586;13.492;2023-06-22T09:44:20;10.60;;;4.28;;
36211;SDS011;22247;48.586;13.492;2023-06-22T09:46:45;22.42;;;5.38;;
36211;SDS011;22247;48.586;13.492;2023-06-22T09:49:10;11.02;;;4.95;;
36211;SDS011;22247;48.586;13.492;2023-06-22T09:51:35;14.73;;;5.03;;
36211;SDS011;22247;48.586;13.492;2023-06-22T09:54:00;17.35;;;5.15;;
36211;SDS011;22247;48.586;13.492;2023-06-22T09:56:25;17.98;;;4.80;;
36211;SDS011;22247;48.586;13.492;2023-06-22T09:58:52;12.65;;;4.47;;
36211;SDS011;22247;48.586;13.492;2023-06-22T10:01:17;10.65;;;4.13;;
36211;SDS011;22247;48.586;13.492;2023-06-22T10:03:42;20.77;;;5.13;;
36211;SDS011;22247;48.586;13.492;2023-06-22T10:06:07;12.52;;;4.28;;
36211;SDS011;22247;48.586;13.492;2023-06-22T10:08:33;15.63;;;4.82;;
36211;SDS011;22247;48.586;13.492;2023-06-22T10:11:02;13.65;;;4.50;;
36211;SDS011;22247;48.586;13.492;2023-06-22T10:13:27;12.73;;;4.70;;
36211;SDS011;22247;48.586;13.492;2023-06-22T10:15:52;8.40;;;4.07;;
36211;SDS011;22247;48.586;13.492;2023-06-22T10:18:17;12.25;;;4.63;;
36211;SDS011;22247;48.586;13.492;2023-06-22T10:20:46;12.15;;;4.38;;
36211;SDS011;22247;48.586;13.492;2023-06-22T10:23:12;13.50;;;4.97;;
36211;SDS011;22247;48.586;13.492;2023-06-22T10:25:37;10.57;;;4.63;;
36211;SDS011;22247;48.586;13.492;2023-06-22T10:28:02;14.95;;;4.90;;
36211;SDS011;22247;48.586;13.492;2023-06-22T10:30:29;16.70;;;4.97;;
36211;SDS011;22247;48.586;13.492;2023-06-22T10:32:57;14.52;;;4.43;;
36211;SDS011;22247;48.586;13.492;2023-06-22T10:35:25;16.20;;;4.45;;
36211;SDS011;22247;48.586;13.492;2023-06-22T10:37:50;17.52;;;4.75;;
36211;SDS011;22247;48.586;13.492;2023-06-22T10:40:15;17.00;;;6.80;;
36211;SDS011;22247;48.586;13.492;2023-06-22T10:42:43;15.10;;;5.18;;
36211;SDS011;22247;48.586;13.492;2023-06-22T10:45:08;7.28;;;4.15;;
36211;SDS011;22247;48.586;13.492;2023-06-22T10:47:35;11.82;;;4.35;;
36211;SDS011;22247;48.586;13.492;2023-06-22T10:50:01;18.42;;;5.15;;
36211;SDS011;22247;48.586;13.492;2023-06-22T10:52:26;11.82;;;4.43;;
36211;SDS011;22247;48.586;13.492;2023-06-22T10:54:51;13.40;;;5.05;;
36211;SDS011;22247;48.586;13.492;2023-06-22T10:57:18;17.10;;;4.82;;
36211;SDS011;22247;48.586;13.492;2023-06-22T10:59:45;15.88;;;4.95;;
36211;SDS011;22247;48.586;13.492;2023-06-22T11:02:10;15.02;;;5.00;;
36211;SDS011;22247;48.586;13.492;2023-06-22T11:04:35;8.50;;;4.75;;
36211;SDS011;22247;48.586;13.492;2023-06-22T11:07:00;16.60;;;5.32;;
36211;SDS011;22247;48.586;13.492;2023-06-22T11:09:25;21.05;;;5.63;;
36211;SDS011;22247;48.586;13.492;2023-06-22T11:11:50;14.05;;;4.63;;
36211;SDS011;22247;48.586;13.492;2023-06-22T11:14:17;17.15;;;5.00;;
36211;SDS011;22247;48.586;13.492;2023-06-22T11:16:44;15.85;;;4.72;;
36211;SDS011;22247;48.586;13.492;2023-06-22T11:19:10;15.55;;;4.40;;
36211;SDS011;22247;48.586;13.492;2023-06-22T11:21:35;17.65;;;4.90;;
36211;SDS011;22247;48.586;13.492;2023-06-22T11:24:00;17.85;;;4.80;;
36211;SDS011;22247;48.586;13.492;2023-06-22T11:26:25;12.23;;;4.97;;
36211;SDS011;22247;48.586;13.492;2023-06-22T11:28:53;13.40;;;4.68;;
36211;SDS011;22247;48.586;13.492;2023-06-22T11:31:18;16.40;;;5.32;;
36211;SDS011;22247;48.586;13.492;2023-06-22T11:33:46;20.63;;;5.07;;
36211;SDS011;22247;48.586;13.492;2023-06-22T11:36:11;12.88;;;4.55;;
36211;SDS011;22247;48.586;13.492;2023-06-22T11:38:36;13.70;;;5.40;;
36211;SDS011;22247;48.586;13.492;2023-06-22T11:41:03;16.83;;;4.93;;
36211;SDS011;22247;48.586;13.492;2023-06-22T11:43:28;15.43;;;4.55;;
36211;SDS011;22247;48.586;13.492;2023-06-22T11:45:53;15.95;;;4.30;;
36211;SDS011;22247;48.586;13.492;2023-06-22T11:48:19;15.35;;;4.90;;
36211;SDS011;22247;48.586;13.492;2023-06-22T11:50:44;16.55;;;5.05;;
36211;SDS011;22247;48.586;13.492;2023-06-22T11:53:12;19.42;;;5.57;;
36211;SDS011;22247;48.586;13.492;2023-06-22T11:55:40;16.23;;;4.85;;
36211;SDS011;22247;48.586;13.492;2023-06-22T11:58:05;16.92;;;5.88;;
36211;SDS011;22247;48.586;13.492;2023-06-22T12:00:30;16.02;;;5.10;;
36211;SDS011;22247;48.586;13.492;2023-06-22T12:02:55;13.93;;;4.55;;
36211;SDS011;22247;48.586;13.492;2023-06-22T12:05:20;28.17;;;5.32;;
36211;SDS011;22247;48.586;13.492;2023-06-22T12:07:46;29.15;;;5.38;;
36211;SDS011;22247;48.586;13.492;2023-06-22T12:10:11;16.73;;;5.45;;
36211;SDS011;22247;48.586;13.492;2023-06-22T12:12:36;19.45;;;5.45;;
36211;SDS011;22247;48.586;13.492;2023-06-22T12:15:01;16.02;;;5.13;;
36211;SDS011;22247;48.586;13.492;2023-06-22T12:17:29;11.02;;;4.63;;
36211;SDS011;22247;48.586;13.492;2023-06-22T12:19:54;19.75;;;4.97;;
36211;SDS011;22247;48.586;13.492;2023-06-22T12:22:21;12.27;;;4.90;;
36211;SDS011;22247;48.586;13.492;2023-06-22T12:24:46;22.52;;;5.93;;
36211;SDS011;22247;48.586;13.492;2023-06-22T12:27:10;16.65;;;4.78;;
36211;SDS011;22247;48.586;13.492;2023-06-22T12:29:35;13.18;;;4.95;;
36211;SDS011;22247;48.586;13.492;2023-06-22T12:32:00;20.10;;;5.03;;
36211;SDS011;22247;48.586;13.492;2023-06-22T12:34:24;16.13;;;5.20;;
36211;SDS011;22247;48.586;13.492;2023-06-22T12:36:49;17.60;;;5.07;;
36211;SDS011;22247;48.586;13.492;2023-06-22T12:39:16;24.98;;;5.35;;
36211;SDS011;22247;48.586;13.492;2023-06-22T12:41:40;17.15;;;4.45;;
36211;SDS011;22247;48.586;13.492;2023-06-22T12:44:05;11.68;;;4.50;;
36211;SDS011;22247;48.586;13.492;2023-06-22T12:46:30;17.63;;;4.53;;
36211;SDS011;22247;48.586;13.492;2023-06-22T12:49:01;20.77;;;5.10;;
36211;SDS011;22247;48.586;13.492;2023-06-22T12:51:25;17.13;;;5.25;;
36211;SDS011;22247;48.586;13.492;2023-06-22T12:53:50;18.52;;;4.78;;
36211;SDS011;22247;48.586;13.492;2023-06-22T12:56:15;17.45;;;4.93;;
36211;SDS011;22247;48.586;13.492;2023-06-22T12:58:39;25.00;;;4.72;;
36211;SDS011;22247;48.586;13.492;2023-06-22T13:01:04;22.17;;;4.85;;
36211;SDS011;22247;48.586;13.492;2023-06-22T13:03:29;21.60;;;4.65;;
36211;SDS011;22247;48.586;13.492;2023-06-22T13:05:54;12.48;;;4.53;;
36211;SDS011;22247;48.586;13.492;2023-06-22T13:08:19;18.63;;;5.28;;
36211;SDS011;22247;48.586;13.492;2023-06-22T13:10:44;18.77;;;5.18;;
36211;SDS011;22247;48.586;13.492;2023-06-22T13:13:09;24.35;;;6.30;;
36211;SDS011;22247;48.586;13.492;2023-06-22T13:15:34;19.77;;;4.70;;
36211;SDS011;22247;48.586;13.492;2023-06-22T13:17:59;22.92;;;5.35;;
36211;SDS011;22247;48.586;13.492;2023-06-22T13:20:24;19.33;;;5.50;;
36211;SDS011;22247;48.586;13.492;2023-06-22T13:22:49;29.52;;;5.85;;
36211;SDS011;22247;48.586;13.492;2023-06-22T13:25:14;13.68;;;5.20;;
36211;SDS011;22247;48.586;13.492;2023-06-22T13:27:43;21.52;;;5.95;;
36211;SDS011;22247;48.586;13.492;2023-06-22T13:30:08;16.25;;;5.82;;
36211;SDS011;22247;48.586;13.492;2023-06-22T13:32:33;21.00;;;5.05;;
36211;SDS011;22247;48.586;13.492;2023-06-22T13:34:58;15.13;;;4.65;;
36211;SDS011;22247;48.586;13.492;2023-06-22T13:37:23;22.13;;;5.85;;
36211;SDS011;22247;48.586;13.492;2023-06-22T13:39:48;13.07;;;6.05;;
36211;SDS011;22247;48.586;13.492;2023-06-22T13:42:13;21.35;;;5.70;;
36211;SDS011;22247;48.586;13.492;2023-06-22T13:44:38;18.48;;;4.85;;
36211;SDS011;22247;48.586;13.492;2023-06-22T13:47:02;25.95;;;5.70;;
36211;SDS011;22247;48.586;13.492;2023-06-22T13:49:28;19.00;;;4.90;;
36211;SDS011;22247;48.586;13.492;2023-06-22T13:51:53;19.88;;;5.75;;
36211;SDS011;22247;48.586;13.492;2023-06-22T13:54:18;21.63;;;5.72;;
36211;SDS011;22247;48.586;13.492;2023-06-22T13:56:43;15.57;;;5.22;;
36211;SDS011;22247;48.586;13.492;2023-06-22T13:59:10;22.63;;;5.93;;
36211;SDS011;22247;48.586;13.492;2023-06-22T14:01:35;16.38;;;5.05;;
36211;SDS011;22247;48.586;13.492;2023-06-22T14:04:00;17.67;;;5.28;;
36211;SDS011;22247;48.586;13.492;2023-06-22T14:06:28;15.02;;;4.97;;
36211;SDS011;22247;48.586;13.492;2023-06-22T14:08:53;22.90;;;5.18;;
36211;SDS011;22247;48.586;13.492;2023-06-22T14:11:17;14.70;;;5.70;;
36211;SDS011;22247;48.586;13.492;2023-06-22T14:13:44;16.70;;;4.95;;
36211;SDS011;22247;48.586;13.492;2023-06-22T14:16:09;18.55;;;6.03;;
36211;SDS011;22247;48.586;13.492;2023-06-22T14:18:33;16.88;;;4.93;;
36211;SDS011;22247;48.586;13.492;2023-06-22T14:20:58;13.43;;;4.57;;
36211;SDS011;22247;48.586;13.492;2023-06-22T14:23:22;21.52;;;5.63;;
36211;SDS011;22247;48.586;13.492;2023-06-22T14:25:47;18.67;;;5.72;;
36211;SDS011;22247;48.586;13.492;2023-06-22T14:28:12;14.00;;;5.72;;
36211;SDS011;22247;48.586;13.492;2023-06-22T14:30:36;12.80;;;5.22;;
36211;SDS011;22247;48.586;13.492;2023-06-22T14:33:01;18.83;;;5.38;;
36211;SDS011;22247;48.586;13.492;2023-06-22T14:35:28;17.20;;;5.55;;
36211;SDS011;22247;48.586;13.492;2023-06-22T14:37:53;21.35;;;5.95;;
36211;SDS011;22247;48.586;13.492;2023-06-22T14:40:17;16.85;;;5.20;;
36211;SDS011;22247;48.586;13.492;2023-06-22T14:42:44;17.00;;;5.38;;
36211;SDS011;22247;48.586;13.492;2023-06-22T14:45:09;12.07;;;4.90;;
36211;SDS011;22247;48.586;13.492;2023-06-22T14:47:33;12.90;;;4.80;;
36211;SDS011;22247;48.586;13.492;2023-06-22T14:49:58;17.98;;;5.10;;
36211;SDS011;22247;48.586;13.492;2023-06-22T14:52:24;13.60;;;4.88;;
36211;SDS011;22247;48.586;13.492;2023-06-22T14:54:49;17.13;;;5.07;;
36211;SDS011;22247;48.586;13.492;2023-06-22T14:57:16;14.10;;;4.88;;